Terminal Aerodrome Forecast
Issued by NWS Pueblo, CO

Home | Current Version | Previous Version | Text Only | Print | Product List | Glossary On
Versions: 1 2 3 4 5 6 7 8 9 10 11 12 13 14 15 16 17 18 19 20 21 22 23 24 25 26 27 28 29 30 31 32 33 34 35 36 37 38 39 40 41 42 43 44
000
FTUS45 KPUB 230538
TAFPUB
TAF
KPUB 230538Z 2306/2406 30006KT P6SM SCT200
     FM231600 06012KT P6SM FEW120 SCT200
     FM232000 12012KT P6SM VCTS SCT100CB BKN150
     FM240300 30008KT P6SM SCT120 BKN200=

USA.gov is the U.S. government's official web portal to all federal, state and local government web resources and services.